createdAt,value
2022-08-27T00:01:49.921Z,38.77
2022-08-27T00:04:18.259Z,35.43
2022-08-27T00:06:46.419Z,38.47
2022-08-27T00:09:14.814Z,38.07
2022-08-27T00:11:44.971Z,39.93
2022-08-27T00:14:13.343Z,38.73
2022-08-27T00:16:43.324Z,33.20
2022-08-27T00:19:11.706Z,39.47
2022-08-27T00:21:39.811Z,34.70
2022-08-27T00:24:08.053Z,36.40
2022-08-27T00:26:41.348Z,37.70
2022-08-27T00:29:11.293Z,38.30
2022-08-27T00:31:39.622Z,37.43
2022-08-27T00:34:09.166Z,35.03
2022-08-27T00:36:41.426Z,34.80
2022-08-27T00:39:09.775Z,34.43
2022-08-27T00:41:38.737Z,31.40
2022-08-27T00:44:07.799Z,30.97
2022-08-27T00:46:40.824Z,33.57
2022-08-27T00:49:14.012Z,29.33
2022-08-27T00:51:42.213Z,30.03
2022-08-27T00:54:10.614Z,32.80
2022-08-27T00:56:48.756Z,33.13
2022-08-27T00:59:22.093Z,32.60
2022-08-27T01:02:08.088Z,33.60
2022-08-27T01:04:39.262Z,32.53
2022-08-27T01:07:07.592Z,37.27
2022-08-27T01:09:35.756Z,37.47
2022-08-27T01:12:04.544Z,40.23
2022-08-27T01:14:32.681Z,37.33
2022-08-27T01:17:02.997Z,39.13
2022-08-27T01:19:35.975Z,40.13
2022-08-27T01:22:21.812Z,34.87
2022-08-27T01:24:55.262Z,33.13
2022-08-27T01:27:27.280Z,39.43
2022-08-27T01:29:55.722Z,37.57
2022-08-27T01:32:26.635Z,35.33
2022-08-27T01:34:55.349Z,36.23
2022-08-27T01:37:25.361Z,35.57
2022-08-27T01:39:59.277Z,33.27
2022-08-27T01:42:31.348Z,39.67
2022-08-27T01:45:01.488Z,36.37
2022-08-27T01:47:34.129Z,33.80
2022-08-27T01:50:02.908Z,39.07
2022-08-27T01:52:32.186Z,38.07
2022-08-27T01:55:01.939Z,39.20
2022-08-27T01:57:30.124Z,38.07
2022-08-27T01:59:58.421Z,40.43
2022-08-27T02:02:26.916Z,40.07
2022-08-27T02:04:55.036Z,35.83
2022-08-27T02:07:23.147Z,33.33
2022-08-27T02:09:51.322Z,35.43
2022-08-27T02:12:20.707Z,35.80
2022-08-27T02:14:48.669Z,41.87
2022-08-27T02:17:17.259Z,37.63
2022-08-27T02:19:45.282Z,36.97
2022-08-27T02:22:13.243Z,42.53
2022-08-27T02:24:42.162Z,39.60
2022-08-27T02:27:10.587Z,38.20
2022-08-27T02:29:39.926Z,36.97
2022-08-27T02:32:08.057Z,40.60
2022-08-27T02:34:50.938Z,38.43
2022-08-27T02:37:18.914Z,42.27
2022-08-27T02:39:46.940Z,41.60
2022-08-27T02:42:15.155Z,38.87
2022-08-27T02:44:44.500Z,40.97
2022-08-27T02:47:12.619Z,43.53
2022-08-27T02:49:40.590Z,42.60
2022-08-27T02:52:08.625Z,39.93
2022-08-27T02:54:36.991Z,38.57
2022-08-27T02:57:05.071Z,42.27
2022-08-27T02:59:33.049Z,38.67
2022-08-27T03:02:02.526Z,42.27
2022-08-27T03:04:30.690Z,38.17
2022-08-27T03:06:59.172Z,35.70
2022-08-27T03:09:27.185Z,33.27
2022-08-27T03:11:55.134Z,35.10
2022-08-27T03:14:23.342Z,32.60
2022-08-27T03:16:51.383Z,33.27
2022-08-27T03:19:23.806Z,33.70
2022-08-27T03:21:54.741Z,34.57
2022-08-27T03:24:23.069Z,34.20
2022-08-27T03:26:52.813Z,27.97
2022-08-27T03:29:22.311Z,29.67
2022-08-27T03:31:50.383Z,29.97
2022-08-27T03:34:19.803Z,29.43
2022-08-27T03:36:51.306Z,31.83
2022-08-27T03:39:19.521Z,30.90
2022-08-27T03:41:55.159Z,27.37
2022-08-27T03:44:24.516Z,26.57
2022-08-27T03:46:58.361Z,27.70
2022-08-27T03:49:26.510Z,32.27
2022-08-27T03:51:56.169Z,29.53
2022-08-27T03:54:24.979Z,32.73
2022-08-27T03:56:54.021Z,31.77
2022-08-27T03:59:21.991Z,34.90
2022-08-27T04:01:50.110Z,30.80
2022-08-27T04:04:18.257Z,35.40
2022-08-27T04:06:46.342Z,35.90
2022-08-27T04:09:15.750Z,35.23
2022-08-27T04:11:44.916Z,37.93
2022-08-27T04:14:20.769Z,42.17
2022-08-27T04:16:55.867Z,41.27
2022-08-27T04:19:27.266Z,43.40
2022-08-27T04:22:00.730Z,46.63
2022-08-27T04:24:31.158Z,48.07
2022-08-27T04:26:59.480Z,49.57
2022-08-27T04:29:28.022Z,49.77
2022-08-27T04:31:56.523Z,52.63
2022-08-27T04:34:25.357Z,56.03
2022-08-27T04:36:56.504Z,58.83
2022-08-27T04:39:25.516Z,59.10
2022-08-27T04:41:56.986Z,64.13
2022-08-27T04:44:25.978Z,60.23
2022-08-27T04:46:57.087Z,57.40
2022-08-27T04:49:26.923Z,59.63
2022-08-27T04:51:55.520Z,57.47
2022-08-27T04:54:32.187Z,64.37
2022-08-27T04:57:03.195Z,56.23
2022-08-27T04:59:31.707Z,58.60
2022-08-27T05:02:01.513Z,59.07
2022-08-27T05:04:33.186Z,60.23
2022-08-27T05:07:02.124Z,57.47
2022-08-27T05:09:30.204Z,58.13
2022-08-27T05:11:58.444Z,57.37
2022-08-27T05:14:30.063Z,55.87
2022-08-27T05:16:58.885Z,57.13
2022-08-27T05:19:27.385Z,56.20
2022-08-27T05:21:55.600Z,56.30
2022-08-27T05:24:24.214Z,61.70
2022-08-27T05:26:52.600Z,56.13
2022-08-27T05:29:20.585Z,57.90
2022-08-27T05:31:50.356Z,63.10
2022-08-27T05:34:24.671Z,55.20
2022-08-27T05:36:54.478Z,55.90
2022-08-27T05:39:22.617Z,55.27
2022-08-27T05:41:52.266Z,60.20
2022-08-27T05:47:10.065Z,62.87
2022-08-27T05:49:38.683Z,76.73
2022-08-27T05:52:09.852Z,55.87
2022-08-27T05:54:38.136Z,51.83
2022-08-27T05:57:06.426Z,58.10
2022-08-27T05:59:51.747Z,51.03
2022-08-27T06:02:21.496Z,53.40
2022-08-27T06:04:49.636Z,54.57
2022-08-27T06:07:19.171Z,53.13
2022-08-27T06:09:47.185Z,60.93
2022-08-27T06:12:15.324Z,60.10
2022-08-27T06:14:43.373Z,49.23
2022-08-27T06:17:11.369Z,53.47
2022-08-27T06:19:42.345Z,56.70
2022-08-27T06:22:11.051Z,53.53
2022-08-27T06:24:41.367Z,47.80
2022-08-27T06:27:11.726Z,46.77
2022-08-27T06:29:40.146Z,50.23
2022-08-27T06:32:09.412Z,53.73
2022-08-27T06:34:38.117Z,49.03
2022-08-27T06:37:08.089Z,51.20
2022-08-27T06:39:37.436Z,44.97
2022-08-27T06:42:06.260Z,49.67
2022-08-27T06:44:34.776Z,47.80
2022-08-27T06:47:03.719Z,49.13
2022-08-27T06:49:31.953Z,53.93
2022-08-27T06:52:00.232Z,46.87
2022-08-27T06:54:29.576Z,49.97
2022-08-27T06:57:00.126Z,52.63
2022-08-27T06:59:28.945Z,48.30
2022-08-27T07:01:57.046Z,42.13
2022-08-27T07:04:32.303Z,46.47
2022-08-27T07:07:01.335Z,42.17
2022-08-27T07:09:32.433Z,45.67
2022-08-27T07:12:00.755Z,41.60
2022-08-27T07:14:28.889Z,41.73
2022-08-27T07:16:57.591Z,57.77
2022-08-27T07:19:25.628Z,40.13
2022-08-27T07:21:54.039Z,40.30
2022-08-27T07:24:22.097Z,41.03
2022-08-27T07:26:51.406Z,41.50
2022-08-27T07:29:20.054Z,41.13
2022-08-27T07:31:48.119Z,36.13
2022-08-27T07:34:16.152Z,37.70
2022-08-27T07:36:44.126Z,38.87
2022-08-27T07:39:13.905Z,43.20
2022-08-27T07:41:55.783Z,40.50
2022-08-27T07:44:34.177Z,34.63
2022-08-27T07:47:03.122Z,36.03
2022-08-27T07:49:34.951Z,35.70
2022-08-27T07:52:03.434Z,36.63
2022-08-27T07:54:31.545Z,39.10
2022-08-27T07:56:59.531Z,38.23
2022-08-27T07:59:29.000Z,40.30
2022-08-27T08:01:57.671Z,40.60
2022-08-27T08:04:26.684Z,37.97
2022-08-27T08:06:55.583Z,38.63
2022-08-27T08:09:24.962Z,36.03
2022-08-27T08:11:54.175Z,35.87
2022-08-27T08:14:22.634Z,39.00
2022-08-27T08:16:52.182Z,41.57
2022-08-27T08:19:20.272Z,35.60
2022-08-27T08:21:48.949Z,40.87
2022-08-27T08:24:17.081Z,38.23
2022-08-27T08:26:45.124Z,34.80
2022-08-27T08:29:18.310Z,41.67
2022-08-27T08:31:50.089Z,39.53
2022-08-27T08:34:20.685Z,40.33
2022-08-27T08:36:54.625Z,38.63
2022-08-27T08:39:23.561Z,41.57
2022-08-27T08:41:54.902Z,42.63
2022-08-27T08:44:32.436Z,42.80
2022-08-27T08:47:05.589Z,41.63
2022-08-27T08:49:44.396Z,39.07
2022-08-27T08:52:30.847Z,36.77
2022-08-27T08:55:08.494Z,36.87
2022-08-27T08:57:41.889Z,40.47
2022-08-27T09:00:13.337Z,35.83
2022-08-27T09:02:45.401Z,39.53
2022-08-27T09:05:14.762Z,37.63
2022-08-27T09:07:49.507Z,35.57
2022-08-27T09:10:27.358Z,35.10
2022-08-27T09:13:00.801Z,36.40
2022-08-27T09:15:32.725Z,34.00
2022-08-27T09:18:14.541Z,29.70
2022-08-27T09:20:48.333Z,26.20
2022-08-27T09:23:23.744Z,25.10
2022-08-27T09:25:51.742Z,25.60
2022-08-27T09:28:40.670Z,26.37
2022-08-27T09:31:10.943Z,22.60
2022-08-27T09:33:44.501Z,15.70
2022-08-27T09:36:26.479Z,19.63
2022-08-27T09:39:01.763Z,19.60
2022-08-27T09:41:36.332Z,21.43
2022-08-27T09:44:10.606Z,17.80
2022-08-27T09:46:38.803Z,17.20
2022-08-27T09:49:14.396Z,18.03
2022-08-27T09:51:46.749Z,17.73
2022-08-27T09:54:28.035Z,18.17
2022-08-27T09:56:57.836Z,19.63
2022-08-27T09:59:28.782Z,20.27
2022-08-27T10:02:04.353Z,19.83
2022-08-27T10:04:51.162Z,16.70
2022-08-27T10:07:32.365Z,17.93
2022-08-27T10:10:07.867Z,21.20
2022-08-27T10:12:47.565Z,19.60
2022-08-27T10:15:16.608Z,20.30
2022-08-27T10:17:58.256Z,19.90
2022-08-27T10:20:34.577Z,21.20
2022-08-27T10:23:16.570Z,20.13
2022-08-27T10:25:55.979Z,19.37
2022-08-27T10:28:36.764Z,21.60
2022-08-27T10:31:15.895Z,19.80
2022-08-27T10:33:59.445Z,20.27
2022-08-27T10:36:37.551Z,22.60
2022-08-27T10:39:15.949Z,21.33
2022-08-27T10:41:50.360Z,22.07
2022-08-27T10:44:30.262Z,18.73
2022-08-27T10:47:11.409Z,25.23
2022-08-27T10:49:47.959Z,20.73
2022-08-27T10:52:22.667Z,18.70
2022-08-27T10:54:58.012Z,20.20
2022-08-27T10:57:54.260Z,20.33
2022-08-27T11:00:29.658Z,19.93
2022-08-27T11:03:03.704Z,19.23
2022-08-27T11:05:36.938Z,20.17
2022-08-27T11:08:12.733Z,19.70
2022-08-27T11:10:46.341Z,20.50
2022-08-27T11:13:19.064Z,19.77
2022-08-27T11:15:52.198Z,21.97
2022-08-27T11:18:26.421Z,20.37
2022-08-27T11:20:59.739Z,19.63
2022-08-27T11:23:33.368Z,25.77
2022-08-27T11:26:04.813Z,22.03
2022-08-27T11:28:38.330Z,20.83
2022-08-27T11:31:16.003Z,23.77
2022-08-27T11:33:53.035Z,22.03
2022-08-27T11:36:47.665Z,25.33
2022-08-27T11:39:40.526Z,23.77
2022-08-27T11:42:15.000Z,24.53
2022-08-27T11:44:44.744Z,22.70
2022-08-27T11:47:16.469Z,21.40
2022-08-27T11:49:48.655Z,24.40
2022-08-27T11:52:25.264Z,22.43
2022-08-27T11:54:57.034Z,25.57
2022-08-27T11:57:31.583Z,24.40
2022-08-27T12:00:11.381Z,24.80
2022-08-27T12:02:39.897Z,24.63
2022-08-27T12:05:10.892Z,23.73
2022-08-27T12:07:44.956Z,23.87
2022-08-27T12:10:25.231Z,24.03
2022-08-27T12:13:03.670Z,23.60
2022-08-27T12:15:49.518Z,23.70
2022-08-27T12:18:36.600Z,24.30
2022-08-27T12:21:12.575Z,25.60
2022-08-27T12:23:51.293Z,27.30
2022-08-27T12:26:31.178Z,29.87
2022-08-27T12:29:24.495Z,28.07
2022-08-27T12:32:01.369Z,29.80
2022-08-27T12:34:30.379Z,26.13
2022-08-27T12:36:58.336Z,27.53
2022-08-27T12:39:31.541Z,27.33
2022-08-27T12:41:59.521Z,28.43
2022-08-27T12:44:31.441Z,25.87
2022-08-27T12:47:02.739Z,26.10
2022-08-27T12:49:39.382Z,27.23
2022-08-27T12:52:19.895Z,27.63
2022-08-27T12:54:59.075Z,25.87
2022-08-27T12:57:36.572Z,29.60
2022-08-27T13:00:12.402Z,29.57
2022-08-27T13:03:15.247Z,26.47
2022-08-27T13:05:48.923Z,25.30
2022-08-27T13:08:22.956Z,25.63
2022-08-27T13:10:51.778Z,26.87
2022-08-27T13:13:23.209Z,30.53
2022-08-27T13:15:56.468Z,26.93
2022-08-27T13:18:29.872Z,25.43
2022-08-27T13:21:04.358Z,26.60
2022-08-27T13:23:32.595Z,27.07
2022-08-27T13:26:06.371Z,28.03
2022-08-27T13:28:36.352Z,30.50
2022-08-27T13:31:09.338Z,26.70
2022-08-27T13:33:40.499Z,26.80
2022-08-27T13:36:09.660Z,27.63
2022-08-27T13:38:44.522Z,31.70
2022-08-27T13:41:30.215Z,26.53
2022-08-27T13:43:59.722Z,29.40
2022-08-27T13:46:31.465Z,26.67
2022-08-27T13:49:00.719Z,28.80
2022-08-27T13:51:33.817Z,27.20
2022-08-27T13:54:13.747Z,26.47
2022-08-27T13:56:57.395Z,28.40
2022-08-27T13:59:30.424Z,26.17
2022-08-27T14:02:02.256Z,26.07
2022-08-27T14:04:39.374Z,26.93
2022-08-27T14:07:11.472Z,25.93
2022-08-27T14:09:45.484Z,25.47
2022-08-27T14:12:28.909Z,25.97
2022-08-27T14:15:16.799Z,27.40
2022-08-27T14:17:47.504Z,26.83
2022-08-27T14:20:16.289Z,25.10
2022-08-27T14:22:44.770Z,27.77
2022-08-27T14:25:14.132Z,23.67
2022-08-27T14:27:54.057Z,26.70
2022-08-27T14:30:30.013Z,25.00
2022-08-27T14:33:01.176Z,23.77
2022-08-27T14:35:30.271Z,24.33
2022-08-27T14:37:59.631Z,24.10
2022-08-27T14:40:27.588Z,24.87
2022-08-27T14:42:55.780Z,23.07
2022-08-27T14:45:24.272Z,22.40
2022-08-27T14:47:52.632Z,22.77
2022-08-27T14:50:21.988Z,21.17
2022-08-27T14:52:50.034Z,22.77
2022-08-27T14:55:18.448Z,22.47
2022-08-27T14:57:46.803Z,24.87
2022-08-27T15:00:15.209Z,24.40
2022-08-27T15:02:47.955Z,22.90
2022-08-27T15:05:16.977Z,22.53
2022-08-27T15:07:47.245Z,23.10
2022-08-27T15:10:16.017Z,23.03
2022-08-27T15:12:44.523Z,25.53
2022-08-27T15:15:14.258Z,24.47
2022-08-27T15:17:42.895Z,21.83
2022-08-27T15:20:18.878Z,21.57
2022-08-27T15:22:52.422Z,20.73
2022-08-27T15:25:21.269Z,21.13
2022-08-27T15:27:49.713Z,21.90
2022-08-27T15:30:19.265Z,22.67
2022-08-27T15:32:49.047Z,20.90
2022-08-27T15:35:26.231Z,23.50
2022-08-27T15:37:56.809Z,20.30
2022-08-27T15:40:26.618Z,23.73
2022-08-27T15:42:57.639Z,21.53
2022-08-27T15:45:27.744Z,22.03
2022-08-27T15:47:56.052Z,21.13
2022-08-27T15:50:24.202Z,27.73
2022-08-27T15:52:56.178Z,22.37
2022-08-27T15:55:28.079Z,23.53
2022-08-27T15:57:56.409Z,22.07
2022-08-27T16:00:26.101Z,21.33
2022-08-27T16:02:54.453Z,21.43
2022-08-27T16:05:22.973Z,22.13
2022-08-27T16:07:51.531Z,21.77
2022-08-27T16:10:19.736Z,24.57
2022-08-27T16:12:49.043Z,21.47
2022-08-27T16:15:17.372Z,24.03
2022-08-27T16:17:45.974Z,21.87
2022-08-27T16:20:16.703Z,22.90
2022-08-27T16:22:45.518Z,23.37
2022-08-27T16:25:18.469Z,25.00
2022-08-27T16:27:48.384Z,28.93
2022-08-27T16:30:16.414Z,31.87
2022-08-27T16:32:47.713Z,29.27
2022-08-27T16:35:16.511Z,30.23
2022-08-27T16:37:44.978Z,28.60
2022-08-27T16:40:13.263Z,27.77
2022-08-27T16:42:44.524Z,26.67
2022-08-27T16:45:14.510Z,27.83
2022-08-27T16:47:56.414Z,27.23
2022-08-27T16:50:36.233Z,26.97
2022-08-27T16:53:07.354Z,30.30
2022-08-27T16:55:37.533Z,29.97
2022-08-27T16:58:07.095Z,27.63
2022-08-27T17:00:38.480Z,29.90
2022-08-27T17:03:07.636Z,26.90
2022-08-27T17:05:35.630Z,25.50
2022-08-27T17:08:05.430Z,28.03
2022-08-27T17:10:36.531Z,33.07
2022-08-27T17:13:04.655Z,27.93
2022-08-27T17:15:32.749Z,28.13
2022-08-27T17:18:02.717Z,27.43
2022-08-27T17:20:31.615Z,30.00
2022-08-27T17:23:00.195Z,29.07
2022-08-27T17:25:29.918Z,30.63
2022-08-27T17:28:00.466Z,28.20
2022-08-27T17:30:29.046Z,28.60
2022-08-27T17:32:57.092Z,30.37
2022-08-27T17:35:26.383Z,33.17
2022-08-27T17:37:54.601Z,33.20
2022-08-27T17:40:22.572Z,30.80
2022-08-27T17:42:50.833Z,31.97
2022-08-27T17:45:18.973Z,31.03
2022-08-27T17:47:46.895Z,30.53
2022-08-27T17:50:14.796Z,34.37
2022-08-27T17:52:44.408Z,30.87
2022-08-27T17:55:12.389Z,30.33
2022-08-27T17:57:41.510Z,32.17
2022-08-27T18:00:11.774Z,31.60
2022-08-27T18:02:42.553Z,30.47
2022-08-27T18:05:13.106Z,33.47
2022-08-27T18:07:42.397Z,32.10
2022-08-27T18:10:14.356Z,33.63
2022-08-27T18:12:43.684Z,32.43
2022-08-27T18:15:16.775Z,33.20
2022-08-27T18:17:44.898Z,33.73
2022-08-27T18:20:14.571Z,33.27
2022-08-27T18:22:48.367Z,33.47
2022-08-27T18:25:20.715Z,38.63
2022-08-27T18:27:51.159Z,37.70
2022-08-27T18:30:20.069Z,35.00
2022-08-27T18:32:48.276Z,38.23
2022-08-27T18:35:19.013Z,39.10
2022-08-27T18:37:47.294Z,38.00
2022-08-27T18:40:19.331Z,39.13
2022-08-27T18:42:48.163Z,36.27
2022-08-27T18:45:19.314Z,39.27
2022-08-27T18:47:47.291Z,37.50
2022-08-27T18:50:19.877Z,38.70
2022-08-27T18:52:49.969Z,39.03
2022-08-27T18:55:22.064Z,36.83
2022-08-27T18:57:50.191Z,38.97
2022-08-27T19:00:19.911Z,41.93
2022-08-27T19:02:52.570Z,38.03
2022-08-27T19:05:25.165Z,38.97
2022-08-27T19:07:53.471Z,38.90
2022-08-27T19:10:23.249Z,42.33
2022-08-27T19:12:51.239Z,43.67
2022-08-27T19:15:19.738Z,40.37
2022-08-27T19:17:51.683Z,41.90
2022-08-27T19:20:20.356Z,41.97
2022-08-27T19:22:49.311Z,38.37
2022-08-27T19:25:18.658Z,40.10
2022-08-27T19:27:48.542Z,41.93
2022-08-27T19:30:18.330Z,42.73
2022-08-27T19:32:46.971Z,41.13
2022-08-27T19:35:15.054Z,40.07
2022-08-27T19:37:52.697Z,40.50
2022-08-27T19:40:22.749Z,40.73
2022-08-27T19:42:52.269Z,43.87
2022-08-27T19:45:23.203Z,39.53
2022-08-27T19:47:52.808Z,43.07
2022-08-27T19:50:22.106Z,42.60
2022-08-27T19:52:50.707Z,39.10
2022-08-27T19:55:18.942Z,37.80
2022-08-27T19:57:47.374Z,43.80
2022-08-27T20:00:19.223Z,43.07
2022-08-27T20:02:47.921Z,41.60
2022-08-27T20:05:20.031Z,44.23
2022-08-27T20:07:48.745Z,38.87
2022-08-27T20:10:17.410Z,40.73
2022-08-27T20:12:46.291Z,42.90
2022-08-27T20:15:14.385Z,42.03
2022-08-27T20:17:45.470Z,44.70
2022-08-27T20:20:14.806Z,40.73
2022-08-27T20:22:44.062Z,42.43
2022-08-27T20:25:13.608Z,40.50
2022-08-27T20:27:42.074Z,44.33
2022-08-27T20:30:12.262Z,38.30
2022-08-27T20:32:40.343Z,39.13
2022-08-27T20:35:11.184Z,42.47
2022-08-27T20:37:42.254Z,42.40
2022-08-27T20:40:15.030Z,44.37
2022-08-27T20:42:44.285Z,45.20
2022-08-27T20:45:12.719Z,44.57
2022-08-27T20:47:41.409Z,41.57
2022-08-27T20:50:12.751Z,43.10
2022-08-27T20:52:41.040Z,39.90
2022-08-27T20:55:12.017Z,36.83
2022-08-27T20:58:04.515Z,38.03
2022-08-27T21:00:33.991Z,44.17
2022-08-27T21:03:02.057Z,44.33
2022-08-27T21:05:33.496Z,37.53
2022-08-27T21:08:01.539Z,36.23
2022-08-27T21:10:29.773Z,35.73
2022-08-27T21:12:57.831Z,39.83
2022-08-27T21:15:26.846Z,33.63
2022-08-27T21:17:54.805Z,35.00
2022-08-27T21:20:22.874Z,33.20
2022-08-27T21:22:52.207Z,34.13
2022-08-27T21:25:20.210Z,30.73
2022-08-27T21:27:48.174Z,33.83
2022-08-27T21:30:16.386Z,32.93
2022-08-27T21:32:44.526Z,30.33
2022-08-27T21:35:12.446Z,27.63
2022-08-27T21:37:41.706Z,26.17
2022-08-27T21:40:12.400Z,24.53
2022-08-27T21:42:40.666Z,25.03
2022-08-27T21:45:09.325Z,24.57
2022-08-27T21:47:38.164Z,25.00
2022-08-27T21:50:09.727Z,27.83
2022-08-27T21:52:37.807Z,24.23
2022-08-27T21:55:06.560Z,25.50
2022-08-27T21:57:35.883Z,24.53
2022-08-27T22:00:15.885Z,25.27
2022-08-27T22:02:43.871Z,24.70
2022-08-27T22:05:11.968Z,26.13
2022-08-27T22:07:39.920Z,28.57
2022-08-27T22:10:08.802Z,26.03
2022-08-27T22:12:38.124Z,27.77
2022-08-27T22:15:07.926Z,28.83
2022-08-27T22:17:36.242Z,30.33
2022-08-27T22:20:06.737Z,24.00
2022-08-27T22:22:34.896Z,23.97
2022-08-27T22:25:02.882Z,25.20
2022-08-27T22:27:30.808Z,27.27
2022-08-27T22:30:00.169Z,23.80
2022-08-27T22:32:28.212Z,23.70
2022-08-27T22:34:56.179Z,25.20
2022-08-27T22:37:24.148Z,23.30
2022-08-27T22:39:52.591Z,25.03
2022-08-27T22:42:20.649Z,26.00
2022-08-27T22:44:48.806Z,25.13
2022-08-27T22:47:18.156Z,23.90
2022-08-27T22:49:46.300Z,25.70
2022-08-27T22:52:14.502Z,23.37
2022-08-27T22:54:42.510Z,24.13
2022-08-27T22:57:10.821Z,22.70
2022-08-27T22:59:39.241Z,24.33
2022-08-27T23:02:09.294Z,23.97
2022-08-27T23:04:54.467Z,24.50
2022-08-27T23:07:23.469Z,26.07
2022-08-27T23:09:51.423Z,26.87
2022-08-27T23:12:20.010Z,27.27
2022-08-27T23:14:47.975Z,27.40
2022-08-27T23:17:16.524Z,25.63
2022-08-27T23:19:46.325Z,31.97
2022-08-27T23:22:16.228Z,31.63
2022-08-27T23:24:58.261Z,32.63
2022-08-27T23:27:31.977Z,29.57
2022-08-27T23:30:01.957Z,38.27
2022-08-27T23:32:30.225Z,33.13
2022-08-27T23:34:59.564Z,32.93
2022-08-27T23:37:27.930Z,31.97
2022-08-27T23:39:56.051Z,32.70
2022-08-27T23:42:24.626Z,34.73
2022-08-27T23:44:52.840Z,35.17
2022-08-27T23:47:20.785Z,32.90
2022-08-27T23:49:48.873Z,31.93
2022-08-27T23:52:19.841Z,32.27
2022-08-27T23:54:47.905Z,32.13
2022-08-27T23:57:16.350Z,26.83
2022-08-27T23:59:44.363Z,25.90
